Willmar, MN

8:17 PM CST on November 22, 2019 (GMT -0600)
Willmar

Weather History for KBDH - October, 2019

Change the Weather History Date:

Thursday, October 17, 2019

  Actual Average (WUND) Record (WUND)
Temperature  
Mean Temperature 48 °F -  
Max Temperature 62 °F - - (-1)
Min Temperature 33 °F - - (-1)
Degree Days  
Heating Degree Days 18    
Moisture  
Dew Point 37 °F    
Average Humidity 72    
Maximum Humidity 100    
Minimum Humidity 42    
Precipitation  
Precipitation 0.00 in - - ()
Sea Level Pressure  
Sea Level Pressure 29.94 in    
Wind  
Wind Speed 8 mph ()    
Max Wind Speed 17 mph    
Max Gust Speed 23 mph    
Visibility 9.4 miles    
Events      
Averages and records for this station are not official NWS values.
T = Trace of Precipitation, MM = Missing Value Source: Averaged Metar Reports

Daily Weather History Graph

Daily Weather History Graph

Search for Another Location

Airport or City:

Astronomy

Oct. 17, 2019 Rise Set
Actual Time 7:38 AM CDT 6:32 PM CDT
Civil Twilight 7:08 AM CDT 7:02 PM CDT
Nautical Twilight 6:34 AM CDT 7:36 PM CDT
Astronomical Twilight 6:00 AM CDT 8:10 PM CDT
Moon 8:55 PM CDT (10/17) 11:19 AM CDT (10/17)
Length of Visible Light 11h 53m
Length of Day
10h 53m
Waning Gibbous, 86% of the Moon is Illuminated
Oct 17
Waning Gibbous
Oct 21
Last Quarter
Oct 27
New
Nov 4
First Quarter
Nov 12
Full

Hourly Weather History & Observations

Time (CDT) Temp. Windchill Dew Point Humidity Pressure Visibility Wind Dir Wind Speed Gust Speed Precip Events Conditions
12:15 AM 37.4 °F 34.9 °F 35.6 °F 93% 30.05 in 10.0 mi SE 3.5 mph - N/A   Clear
12:16 AM 37.4 °F 34.9 °F 35.6 °F 93% 30.05 in 10.0 mi SE 3.5 mph - N/A   Clear
12:38 AM 35.6 °F 32.8 °F 33.8 °F 93% 30.05 in 10.0 mi East 3.5 mph - N/A   Clear
12:55 AM 35.6 °F 31.7 °F 33.8 °F 93% 30.05 in 10.0 mi ESE 4.6 mph - N/A   Clear
12:56 AM 35.6 °F 31.7 °F 33.8 °F 93% 30.05 in 10.0 mi ESE 4.6 mph - N/A   Clear
1:15 AM 35.6 °F 31.7 °F 33.8 °F 93% 30.05 in 10.0 mi ESE 4.6 mph - N/A   Clear
1:19 AM 35.6 °F 31.7 °F 33.8 °F 93% 30.05 in 10.0 mi ESE 4.6 mph - N/A   Clear
1:35 AM 35.6 °F 31.7 °F 33.8 °F 93% 30.04 in 10.0 mi ESE 4.6 mph - N/A   Clear
1:55 AM 35.6 °F 31.7 °F 33.8 °F 93% 30.04 in 10.0 mi ESE 4.6 mph - N/A   Clear
1:59 AM 35.6 °F 31.7 °F 33.8 °F 93% 30.04 in 10.0 mi ESE 4.6 mph - N/A   Clear
2:15 AM 35.6 °F 31.7 °F 33.8 °F 93% 30.03 in 10.0 mi ESE 4.6 mph - N/A   Clear
2:35 AM 35.6 °F 32.8 °F 33.8 °F 93% 30.03 in 10.0 mi ESE 3.5 mph - N/A   Clear
2:36 AM 35.6 °F 32.8 °F 33.8 °F 93% 30.03 in 10.0 mi ESE 3.5 mph - N/A   Clear
2:57 AM 33.8 °F 29.6 °F 33.8 °F 100% 30.02 in 10.0 mi SE 4.6 mph - N/A   Clear
3:15 AM 33.8 °F 29.6 °F 33.8 °F 100% 30.02 in 7.0 mi SE 4.6 mph - N/A   Clear
3:16 AM 33.8 °F 29.6 °F 33.8 °F 100% 30.02 in 7.0 mi SE 4.6 mph - N/A   Clear
3:37 AM 33.8 °F 29.6 °F 32.0 °F 93% 30.01 in 7.0 mi ESE 4.6 mph - N/A   Clear
3:55 AM 33.8 °F 30.8 °F 32.0 °F 93% 30.01 in 7.0 mi ESE 3.5 mph - N/A   Clear
3:56 AM 33.8 °F 30.8 °F 32.0 °F 93% 30.02 in 7.0 mi ESE 3.5 mph - N/A   Clear
4:17 AM 33.8 °F 30.8 °F 32.0 °F 93% 30.02 in 7.0 mi ESE 3.5 mph - N/A   Clear
4:35 AM 33.8 °F 29.6 °F 33.8 °F 100% 30.01 in 7.0 mi East 4.6 mph - N/A   Clear
4:36 AM 33.8 °F 29.6 °F 33.8 °F 100% 30.01 in 7.0 mi ESE 4.6 mph - N/A   Clear
4:58 AM 33.8 °F 29.6 °F 33.8 °F 100% 30.01 in 7.0 mi ESE 4.6 mph - N/A   Clear
5:15 AM 33.8 °F 28.6 °F 33.8 °F 100% 30.00 in 7.0 mi ESE 5.8 mph - N/A   Clear
5:16 AM 33.8 °F 28.6 °F 33.8 °F 100% 30.00 in 7.0 mi East 5.8 mph - N/A   Clear
5:38 AM 33.8 °F 29.6 °F 33.8 °F 100% 30.00 in 7.0 mi ESE 4.6 mph - N/A   Clear
5:55 AM 33.8 °F 29.6 °F 32.0 °F 93% 30.00 in 7.0 mi ESE 4.6 mph - N/A   Clear
5:56 AM 33.8 °F 29.6 °F 32.0 °F 93% 30.00 in 7.0 mi ESE 4.6 mph - N/A   Clear
6:18 AM 33.8 °F 28.6 °F 32.0 °F 93% 30.00 in 7.0 mi ESE 5.8 mph - N/A   Clear
6:35 AM 33.8 °F 29.6 °F 33.8 °F 100% 30.00 in 7.0 mi East 4.6 mph - N/A   Clear
6:36 AM 33.8 °F 29.6 °F 33.8 °F 100% 30.00 in 7.0 mi East 4.6 mph - N/A   Clear
6:58 AM 35.6 °F 30.7 °F 33.8 °F 93% 30.00 in 7.0 mi ESE 5.8 mph - N/A   Clear
7:15 AM 35.6 °F 29.9 °F 33.8 °F 93% 29.99 in 7.0 mi ESE 6.9 mph - N/A   Clear
7:35 AM 35.6 °F 30.7 °F 33.8 °F 93% 30.00 in 10.0 mi ESE 5.8 mph - N/A   Clear
7:39 AM 35.6 °F 29.9 °F 33.8 °F 93% 30.00 in 10.0 mi ESE 6.9 mph - N/A   Clear
7:55 AM 35.6 °F 29.9 °F 33.8 °F 93% 30.00 in 7.0 mi ESE 6.9 mph - N/A   Clear
8:15 AM 35.6 °F 29.9 °F 33.8 °F 93% 30.00 in 10.0 mi ESE 6.9 mph - N/A   Clear
8:16 AM 35.6 °F 29.9 °F 33.8 °F 93% 30.00 in 10.0 mi ESE 6.9 mph - N/A   Clear
8:36 AM 35.6 °F 29.2 °F 33.8 °F 93% 30.00 in 10.0 mi ESE 8.1 mph - N/A   Clear
8:55 AM 37.4 °F 31.4 °F 35.6 °F 93% 30.00 in 10.0 mi SE 8.1 mph - N/A   Clear
8:56 AM 37.4 °F 31.4 °F 35.6 °F 93% 30.00 in 10.0 mi SE 8.1 mph - N/A   Clear
9:16 AM 39.2 °F 33.6 °F 35.6 °F 87% 30.00 in 10.0 mi SE 8.1 mph - N/A   Clear
9:35 AM 41.0 °F 36.4 °F 37.4 °F 87% 30.00 in 10.0 mi ESE 6.9 mph - N/A   Clear
9:36 AM 41.0 °F 36.4 °F 37.4 °F 87% 29.99 in 10.0 mi SE 6.9 mph - N/A   Clear
9:58 AM 44.6 °F 39.2 °F 37.4 °F 76% 30.00 in 10.0 mi SE 10.4 mph - N/A   Clear
10:15 AM 46.4 °F 41.1 °F 37.4 °F 71% 30.00 in 10.0 mi SE 11.5 mph - N/A   Clear
10:38 AM 48.2 °F - 37.4 °F 66% 29.99 in 10.0 mi SE 10.4 mph - N/A   Clear
10:55 AM 50.0 °F - 39.2 °F 66% 29.99 in 10.0 mi SE 12.7 mph - N/A   Clear
11:15 AM 51.8 °F - 39.2 °F 62% 29.98 in 10.0 mi SE 10.4 mph - N/A   Clear
11:16 AM 51.8 °F - 39.2 °F 62% 29.98 in 10.0 mi SE 10.4 mph - N/A   Clear
11:37 AM 53.6 °F - 39.2 °F 58% 29.98 in 10.0 mi SE 12.7 mph - N/A   Clear
11:55 AM 53.6 °F - 39.2 °F 58% 29.98 in 10.0 mi SE 13.8 mph - N/A   Clear
11:56 AM 53.6 °F - 39.2 °F 58% 29.97 in 10.0 mi SE 13.8 mph 19.6 mph N/A   Clear
12:18 PM 55.4 °F - 39.2 °F 54% 29.97 in 10.0 mi SE 13.8 mph 18.4 mph N/A   Clear
12:35 PM 55.4 °F - 39.2 °F 54% 29.96 in 10.0 mi SE 15.0 mph 19.6 mph N/A   Clear
12:36 PM 55.4 °F - 39.2 °F 54% 29.96 in 10.0 mi ESE 13.8 mph 19.6 mph N/A   Clear
12:58 PM 57.2 °F - 39.2 °F 51% 29.95 in 10.0 mi ESE 12.7 mph 20.7 mph N/A   Clear
1:15 PM 57.2 °F - 39.2 °F 51% 29.94 in 10.0 mi SE 13.8 mph 18.4 mph N/A   Clear
1:16 PM 57.2 °F - 39.2 °F 51% 29.94 in 10.0 mi ESE 15.0 mph - N/A   Clear
1:38 PM 59.0 °F - 39.2 °F 48% 29.92 in 10.0 mi ESE 16.1 mph 21.9 mph N/A   Clear
1:55 PM 59.0 °F - 39.2 °F 48% 29.91 in 10.0 mi SE 15.0 mph - N/A   Clear
1:56 PM 59.0 °F - 39.2 °F 48% 29.91 in 10.0 mi SE 16.1 mph - N/A   Clear
2:18 PM 60.8 °F - 39.2 °F 45% 29.90 in 10.0 mi ESE 17.3 mph 20.7 mph N/A   Clear
2:35 PM 60.8 °F - 39.2 °F 45% 29.90 in 10.0 mi ESE 16.1 mph 21.9 mph N/A   Clear
2:36 PM 60.8 °F - 39.2 °F 45% 29.90 in 10.0 mi ESE 16.1 mph 21.9 mph N/A   Clear
2:58 PM 60.8 °F - 39.2 °F 45% 29.89 in 10.0 mi SE 15.0 mph 23.0 mph N/A   Clear
3:15 PM 62.6 °F - 39.2 °F 42% 29.89 in 10.0 mi SE 15.0 mph - N/A   Clear
3:16 PM 62.6 °F - 39.2 °F 42% 29.89 in 10.0 mi SE 16.1 mph - N/A   Clear
3:38 PM 62.6 °F - 39.2 °F 42% 29.88 in 10.0 mi SE 15.0 mph 23.0 mph N/A   Clear
3:55 PM 62.6 °F - 39.2 °F 42% 29.88 in 10.0 mi SE 16.1 mph 19.6 mph N/A   Clear
4:15 PM 60.8 °F - 39.2 °F 45% 29.87 in 10.0 mi SE 16.1 mph 20.7 mph N/A   Clear
4:16 PM 60.8 °F - 39.2 °F 45% 29.87 in 10.0 mi SE 13.8 mph 20.7 mph N/A   Clear
4:37 PM 60.8 °F - 39.2 °F 45% 29.87 in 10.0 mi SE 12.7 mph 21.9 mph N/A   Clear
4:55 PM 60.8 °F - 39.2 °F 45% 29.87 in 10.0 mi SE 13.8 mph 19.6 mph N/A   Clear
4:56 PM 60.8 °F - 39.2 °F 45% 29.87 in 10.0 mi SE 11.5 mph 19.6 mph N/A   Clear
5:17 PM 60.8 °F - 39.2 °F 45% 29.86 in 10.0 mi SE 16.1 mph 23.0 mph N/A   Clear
5:35 PM 60.8 °F - 39.2 °F 45% 29.85 in 10.0 mi SE 11.5 mph - N/A   Clear
5:36 PM 60.8 °F - 39.2 °F 45% 29.85 in 10.0 mi SE 13.8 mph - N/A   Clear
5:57 PM 59.0 °F - 39.2 °F 48% 29.85 in 10.0 mi SE 11.5 mph 17.3 mph N/A   Clear
6:15 PM 57.2 °F - 39.2 °F 51% 29.85 in 10.0 mi ESE 9.2 mph - N/A   Clear
6:16 PM 57.2 °F - 39.2 °F 51% 29.85 in 10.0 mi ESE 10.4 mph - N/A   Clear
6:38 PM 53.6 °F - 39.2 °F 58% 29.85 in 10.0 mi ESE 10.4 mph - N/A   Clear
6:56 PM 53.6 °F - 39.2 °F 58% 29.84 in 10.0 mi ESE 12.7 mph - N/A   Clear
7:15 PM 53.6 °F - 39.2 °F 58% 29.84 in 10.0 mi ESE 12.7 mph - N/A   Clear
7:16 PM 53.6 °F - 39.2 °F 58% 29.84 in 10.0 mi ESE 12.7 mph - N/A   Clear
7:36 PM 51.8 °F - 39.2 °F 62% 29.83 in 10.0 mi ESE 12.7 mph - N/A   Clear
7:55 PM 51.8 °F - 39.2 °F 62% 29.83 in 10.0 mi ESE 12.7 mph 17.3 mph N/A   Clear
7:56 PM 51.8 °F - 39.2 °F 62% 29.83 in 10.0 mi ESE 13.8 mph 17.3 mph N/A   Clear
8:16 PM 51.8 °F - 39.2 °F 62% 29.83 in 10.0 mi ESE 13.8 mph - N/A   Clear
8:35 PM 51.8 °F - 39.2 °F 62% 29.83 in 10.0 mi ESE 13.8 mph - N/A   Clear
8:36 PM 51.8 °F - 39.2 °F 62% 29.83 in 10.0 mi ESE 13.8 mph - N/A   Clear
8:56 PM 51.8 °F - 39.2 °F 62% 29.82 in 10.0 mi ESE 12.7 mph 18.4 mph N/A   Clear
9:15 PM 51.8 °F - 39.2 °F 62% 29.82 in 10.0 mi SE 12.7 mph - N/A   Clear
9:16 PM 51.8 °F - 39.2 °F 62% 29.82 in 10.0 mi SE 13.8 mph - N/A   Clear
9:37 PM 51.8 °F - 39.2 °F 62% 29.82 in 10.0 mi SE 15.0 mph - N/A   Clear
9:55 PM 51.8 °F - 39.2 °F 62% 29.82 in 10.0 mi SE 12.7 mph 21.9 mph N/A   Clear
9:56 PM 51.8 °F - 39.2 °F 62% 29.82 in 10.0 mi SE 13.8 mph 18.4 mph N/A   Clear
10:17 PM 50.0 °F - 39.2 °F 66% 29.82 in 10.0 mi SE 13.8 mph - N/A   Clear
10:35 PM 50.0 °F - 39.2 °F 66% 29.82 in 10.0 mi SE 11.5 mph - N/A   Clear
10:36 PM 50.0 °F - 39.2 °F 66% 29.82 in 10.0 mi SE 11.5 mph - N/A   Clear
10:57 PM 50.0 °F - 39.2 °F 66% 29.82 in 10.0 mi SE 12.7 mph 19.6 mph N/A   Clear
11:15 PM 50.0 °F - 39.2 °F 66% 29.82 in 10.0 mi SE 12.7 mph - N/A   Clear
11:16 PM 50.0 °F - 39.2 °F 66% 29.82 in 10.0 mi SE 13.8 mph - N/A   Clear
11:37 PM 48.2 °F - 39.2 °F 71% 29.82 in 10.0 mi SE 11.5 mph - N/A   Clear
11:55 PM 48.2 °F - 39.2 °F 71% 29.81 in 10.0 mi SE 13.8 mph 19.6 mph N/A   Clear
11:56 PM 48.2 °F - 39.2 °F 71% 29.80 in 10.0 mi SE 12.7 mph 19.6 mph N/A   Clear